Time;durP1;ratioP1;P1;durP2;ratioP2;P2;SDS_P1;SDS_P2;PMS_P1;PMS_P2;Temp;Humidity;BMP_temperature;BMP_pressure;BME280_temperature;BME280_humidity;BME280_pressure;Samples;Min_cycle;Max_cycle;Signal;HPM_P1;HPM_P2
2022/10/27 00:01:01;;;;;;;9.93;4.50;;;;;;;16.21;63.01;99549.47;6918262;28;20325;-78
2022/10/27 00:04:23;;;;;;;11.83;4.63;;;;;;;16.47;62.71;99560.97;6917309;28;20208;-78
2022/10/27 00:07:44;;;;;;;4.80;4.30;;;;;;;16.76;62.26;99545.78;6917679;28;20351;-78
2022/10/27 00:11:07;;;;;;;9.43;4.37;;;;;;;16.71;61.51;99540.19;6918150;28;20224;-78
2022/10/27 00:14:28;;;;;;;10.93;4.30;;;;;;;16.19;63.21;99548.84;6917583;28;20212;-78
2022/10/27 00:17:51;;;;;;;8.90;4.23;;;;;;;15.93;64.52;99557.22;6915500;28;20754;-78
2022/10/27 00:21:14;;;;;;;9.73;4.73;;;;;;;16.37;63.41;99549.72;6917552;28;20813;-78
2022/10/27 00:24:36;;;;;;;9.73;4.70;;;;;;;16.72;62.54;99530.94;6917445;28;20669;-78
2022/10/27 00:27:57;;;;;;;8.57;4.30;;;;;;;16.75;61.94;99546.84;6917006;28;20212;-78
2022/10/27 00:31:20;;;;;;;12.73;5.10;;;;;;;15.69;64.82;99520.78;6918023;28;20375;-78
2022/10/27 00:34:43;;;;;;;13.73;4.63;;;;;;;16.27;64.21;99551.28;6918521;28;20338;-78
2022/10/27 00:38:04;;;;;;;7.33;5.27;;;;;;;16.38;62.96;99528.75;6917518;28;20600;-77
2022/10/27 00:41:28;;;;;;;8.13;4.80;;;;;;;16.26;63.00;99555.03;6918767;28;20229;-77
2022/10/27 00:44:50;;;;;;;9.30;4.63;;;;;;;16.33;63.20;99569.44;6918390;28;20359;-77
2022/10/27 00:48:11;;;;;;;9.50;5.10;;;;;;;15.80;63.11;99473.03;6916707;28;20215;-78
2022/10/27 00:51:34;;;;;;;6.87;4.33;;;;;;;16.71;62.41;99567.41;6917355;28;20232;-78
2022/10/27 00:54:58;;;;;;;9.83;4.00;;;;;;;16.32;62.61;99545.97;6917319;28;20207;-78
2022/10/27 00:58:20;;;;;;;11.83;4.60;;;;;;;16.33;62.69;99583.06;6921066;28;20232;-77
2022/10/27 01:01:42;;;;;;;9.43;4.27;;;;;;;15.78;62.33;99532.22;6922966;28;20270;-77
2022/10/27 01:05:06;;;;;;;11.27;5.97;;;;;;;15.99;63.07;99589.78;6923347;28;20299;-76
2022/10/27 01:08:30;;;;;;;11.00;5.93;;;;;;;15.77;63.69;99580.34;6922593;28;20564;-77
2022/10/27 01:11:51;;;;;;;10.47;4.77;;;;;;;15.75;64.14;99579.72;6922518;28;20270;-77
2022/10/27 01:15:13;;;;;;;8.17;4.40;;;;;;;16.36;62.84;99582.59;6922653;28;20357;-77
2022/10/27 01:18:41;;;;;;;11.63;4.97;;;;;;;16.13;62.71;99585.09;6920789;28;20645;-77
2022/10/27 01:22:07;;;;;;;12.23;4.73;;;;;;;15.88;63.06;99581.53;6918558;28;20295;-76
2022/10/27 01:26:01;;;;;;;11.13;5.53;;;;;;;15.94;63.09;99586.09;6896171;28;20257;-77
2022/10/27 01:29:39;;;;;;;9.37;4.30;;;;;;;16.23;62.47;99561.75;6892461;28;20204;-77
2022/10/27 01:33:06;;;;;;;7.63;4.40;;;;;;;16.12;61.94;99562.50;6894457;28;20226;-77
2022/10/27 01:36:33;;;;;;;7.37;3.93;;;;;;;15.99;61.53;99546.28;6894313;28;20216;-77
2022/10/27 01:39:58;;;;;;;6.00;4.27;;;;;;;15.92;61.57;99569.97;6894592;28;20196;-77
2022/10/27 01:43:22;;;;;;;8.97;4.20;;;;;;;15.99;61.52;99562.59;6895732;28;20207;-77
2022/10/27 01:46:44;;;;;;;7.93;4.00;;;;;;;15.33;61.83;99533.38;6895386;28;20279;-76
2022/10/27 01:50:08;;;;;;;7.90;4.47;;;;;;;15.36;63.68;99581.84;6894183;28;20644;-77
2022/10/27 01:53:32;;;;;;;9.00;4.40;;;;;;;15.91;62.76;99567.47;6895171;28;20216;-77
2022/10/27 01:57:06;;;;;;;9.20;4.83;;;;;;;15.84;62.15;99563.97;6903936;28;20287;-78
2022/10/27 02:00:29;;;;;;;7.10;4.20;;;;;;;15.71;62.26;99536.88;6946957;28;20314;-77
2022/10/27 02:03:55;;;;;;;13.57;4.90;;;;;;;15.90;61.93;99557.66;6949909;28;20188;-78
2022/10/27 02:07:26;;;;;;;16.50;5.33;;;;;;;15.37;63.49;99557.19;6948664;28;20402;-78
2022/10/27 02:10:50;;;;;;;6.57;4.47;;;;;;;15.57;63.34;99557.88;6948518;28;20364;-77
2022/10/27 02:14:12;;;;;;;8.07;4.77;;;;;;;15.36;63.41;99541.09;6950227;28;20730;-77
2022/10/27 02:17:49;;;;;;;7.20;4.53;;;;;;;15.58;63.07;99528.81;6956710;28;20274;-79
2022/10/27 02:21:12;;;;;;;8.30;4.47;;;;;;;15.67;62.99;99544.66;6954244;28;20266;-77
2022/10/27 02:24:35;;;;;;;8.10;4.80;;;;;;;15.61;62.76;99521.06;6951035;28;20353;-77
2022/10/27 02:27:59;;;;;;;11.00;5.00;;;;;;;15.58;62.73;99556.00;6948844;28;20236;-77
2022/10/27 02:31:22;;;;;;;8.77;4.90;;;;;;;15.24;63.31;99549.06;6948083;28;20276;-77
2022/10/27 02:34:44;;;;;;;8.93;4.70;;;;;;;15.12;64.11;99558.94;6948924;28;20238;-77
2022/10/27 02:38:05;;;;;;;12.17;5.00;;;;;;;15.27;63.40;99526.06;6948021;28;20376;-77
2022/10/27 02:41:28;;;;;;;11.93;4.87;;;;;;;15.19;63.04;99518.16;6948442;28;20231;-76
2022/10/27 02:44:50;;;;;;;12.83;4.97;;;;;;;15.40;63.15;99562.16;6947999;28;20655;-78
2022/10/27 02:48:11;;;;;;;7.63;4.57;;;;;;;15.50;62.77;99562.53;6947175;28;20271;-77
2022/10/27 02:51:33;;;;;;;11.27;4.80;;;;;;;15.45;63.12;99572.41;6921974;28;20713;-77
2022/10/27 02:54:54;;;;;;;9.20;4.33;;;;;;;15.19;64.20;99567.03;6921059;28;20222;-77
2022/10/27 02:58:17;;;;;;;8.40;4.43;;;;;;;15.66;62.71;99559.28;6920620;28;20282;-77
2022/10/27 03:01:38;;;;;;;9.90;4.80;;;;;;;15.58;62.36;99575.03;6918982;28;20231;-77
2022/10/27 03:05:02;;;;;;;11.33;4.50;;;;;;;15.34;61.01;99568.47;6920367;28;20640;-77
2022/10/27 03:08:23;;;;;;;10.67;4.33;;;;;;;15.07;62.09;99555.19;6919418;28;20201;-77
2022/10/27 03:11:45;;;;;;;8.87;5.17;;;;;;;15.12;63.37;99558.09;6919514;28;20771;-77
2022/10/27 03:15:09;;;;;;;11.87;5.17;;;;;;;15.28;63.16;99566.56;6919771;28;20261;-77
2022/10/27 03:18:30;;;;;;;9.47;4.60;;;;;;;15.63;62.19;99564.34;6917697;28;20692;-77
2022/10/27 03:21:52;;;;;;;5.93;4.87;;;;;;;15.74;61.26;99567.19;6919153;28;20227;-77
2022/10/27 03:25:14;;;;;;;8.30;4.60;;;;;;;15.58;60.94;99572.31;6894971;28;20293;-77
2022/10/27 03:28:35;;;;;;;15.87;4.40;;;;;;;15.13;61.38;99571.47;6892110;28;20208;-77
2022/10/27 03:31:58;;;;;;;8.10;4.10;;;;;;;14.99;62.45;99571.75;6891637;28;20229;-77
2022/10/27 03:35:20;;;;;;;8.73;4.87;;;;;;;15.16;62.13;99570.22;6892609;28;20305;-77
2022/10/27 03:38:42;;;;;;;10.13;4.87;;;;;;;14.96;62.44;99562.13;6891853;28;20282;-77
2022/10/27 03:42:03;;;;;;;8.23;4.50;;;;;;;14.91;62.17;99571.97;6892252;28;20709;-77
2022/10/27 03:45:26;;;;;;;8.10;4.10;;;;;;;14.80;61.99;99548.22;6893391;28;20631;-76
2022/10/27 03:48:49;;;;;;;6.13;4.57;;;;;;;15.01;61.88;99564.19;6890687;28;20204;-76
2022/10/27 03:52:10;;;;;;;7.83;4.70;;;;;;;15.02;62.18;99574.00;6890886;28;20710;-77
2022/10/27 03:55:32;;;;;;;8.43;4.83;;;;;;;14.91;62.21;99556.50;6891016;28;20263;-77
2022/10/27 03:58:54;;;;;;;8.63;5.53;;;;;;;14.75;62.27;99564.31;6890223;28;20228;-77
2022/10/27 04:02:16;;;;;;;10.10;5.40;;;;;;;14.62;62.98;99564.34;6888960;28;20724;-77
2022/10/27 04:05:39;;;;;;;11.10;5.17;;;;;;;14.51;63.65;99567.69;6890393;28;20208;-77
2022/10/27 04:09:01;;;;;;;9.70;4.63;;;;;;;14.76;63.12;99569.50;6890193;28;20217;-77
2022/10/27 04:12:22;;;;;;;8.17;4.20;;;;;;;14.68;62.74;99553.44;6890132;28;20700;-78
2022/10/27 04:15:44;;;;;;;14.80;5.83;;;;;;;14.80;62.84;99564.50;6890481;28;20265;-77
2022/10/27 04:19:05;;;;;;;13.43;5.13;;;;;;;14.86;62.75;99561.75;6889356;28;20228;-78
2022/10/27 04:22:28;;;;;;;8.30;4.87;;;;;;;14.85;62.42;99553.81;6890507;28;20585;-77
2022/10/27 04:25:49;;;;;;;8.33;4.63;;;;;;;14.82;62.24;99565.94;6890527;28;20260;-77
2022/10/27 04:29:11;;;;;;;11.57;5.07;;;;;;;14.68;63.69;99572.44;6889760;28;20365;-77
2022/10/27 04:32:32;;;;;;;10.37;5.43;;;;;;;14.99;62.22;99560.88;6896460;28;20220;-77
2022/10/27 04:35:54;;;;;;;10.50;5.17;;;;;;;14.72;62.11;99549.28;6917282;28;20279;-78
2022/10/27 04:39:17;;;;;;;7.93;5.07;;;;;;;14.66;62.27;99577.28;6916373;28;20224;-78
2022/10/27 04:42:44;;;;;;;12.67;5.30;;;;;;;14.85;61.78;99561.94;6910274;28;20651;-78
2022/10/27 04:46:05;;;;;;;10.63;5.00;;;;;;;14.83;61.90;99580.34;6889978;28;20197;-78
2022/10/27 04:49:27;;;;;;;7.13;5.70;;;;;;;14.87;61.31;99568.03;6902271;28;20204;-77
2022/10/27 04:52:55;;;;;;;10.77;5.40;;;;;;;14.55;61.25;99568.94;6944092;28;20231;-78
2022/10/27 04:56:18;;;;;;;10.70;6.00;;;;;;;14.45;61.89;99577.50;6924770;28;20238;-77
2022/10/27 04:59:40;;;;;;;8.00;5.90;;;;;;;14.28;62.25;99578.97;6888853;28;20276;-75
2022/10/27 05:03:01;;;;;;;10.07;5.57;;;;;;;14.41;62.38;99595.28;6888855;28;20248;-79
2022/10/27 05:06:23;;;;;;;6.47;5.33;;;;;;;14.49;62.21;99583.34;6889961;28;20270;-78
2022/10/27 05:09:44;;;;;;;7.73;4.90;;;;;;;14.51;61.77;99584.81;6888848;28;20258;-79
2022/10/27 05:13:07;;;;;;;11.03;5.50;;;;;;;14.54;61.94;99584.41;6906732;28;20704;-79
2022/10/27 05:16:29;;;;;;;6.77;5.00;;;;;;;14.38;61.73;99575.84;6906075;28;20204;-78
2022/10/27 05:19:50;;;;;;;10.77;4.90;;;;;;;14.63;61.49;99593.16;6911430;28;20227;-76
2022/10/27 05:23:11;;;;;;;12.67;5.90;;;;;;;14.37;61.62;99577.72;6902111;28;20291;-76
2022/10/27 05:26:33;;;;;;;11.13;6.20;;;;;;;14.25;61.29;99544.16;6892857;28;20212;-79
2022/10/27 05:29:56;;;;;;;6.23;5.63;;;;;;;14.68;60.92;99566.22;6888471;28;20209;-76
2022/10/27 05:33:17;;;;;;;12.47;5.63;;;;;;;14.52;61.29;99562.03;6904746;28;20234;-79
2022/10/27 05:36:39;;;;;;;10.23;5.77;;;;;;;14.56;60.94;99573.31;6895146;28;20335;-77
2022/10/27 05:40:00;;;;;;;6.63;5.20;;;;;;;14.16;62.16;99569.78;6889545;28;20249;-77
2022/10/27 05:43:22;;;;;;;8.03;5.30;;;;;;;14.69;61.61;99570.59;6893725;28;20219;-77
2022/10/27 05:46:45;;;;;;;8.83;5.10;;;;;;;14.81;60.77;99569.69;6896076;28;20224;-77
2022/10/27 05:50:07;;;;;;;16.37;5.17;;;;;;;14.83;61.19;99562.19;6913591;28;20219;-77
2022/10/27 05:53:28;;;;;;;7.70;5.50;;;;;;;14.47;61.82;99566.44;6923953;28;20236;-77
2022/10/27 05:56:50;;;;;;;7.40;4.87;;;;;;;14.33;62.11;99562.09;6923684;28;20214;-77
2022/10/27 06:00:12;;;;;;;7.13;5.03;;;;;;;14.31;62.45;99546.03;6921407;28;20235;-77
2022/10/27 06:03:35;;;;;;;8.73;5.80;;;;;;;14.29;62.13;99544.56;6906896;28;20338;-77
2022/10/27 06:06:56;;;;;;;7.40;5.87;;;;;;;14.37;62.51;99553.31;6908871;28;20201;-77
2022/10/27 06:10:18;;;;;;;10.10;6.00;;;;;;;14.37;62.94;99553.31;6919474;28;20355;-77
2022/10/27 06:13:39;;;;;;;10.33;6.10;;;;;;;14.51;62.79;99554.94;6923570;28;20658;-77
2022/10/27 06:17:01;;;;;;;9.10;5.77;;;;;;;14.09;63.79;99541.00;6923057;28;20751;-79
2022/10/27 06:20:24;;;;;;;7.30;6.10;;;;;;;13.68;65.79;99540.38;6922581;28;20366;-79
2022/10/27 06:23:47;;;;;;;15.13;6.33;;;;;;;14.62;63.68;99550.78;6922745;28;20243;-77
2022/10/27 06:27:09;;;;;;;9.80;5.70;;;;;;;14.62;62.54;99550.78;6906985;28;20276;-78
2022/10/27 06:30:30;;;;;;;9.23;5.20;;;;;;;14.47;62.64;99545.59;6918860;28;20378;-77
2022/10/27 06:33:52;;;;;;;9.10;5.27;;;;;;;14.74;61.57;99558.03;6917738;28;20273;-77
2022/10/27 06:37:15;;;;;;;13.20;6.90;;;;;;;14.61;63.64;99549.94;6905875;28;20650;-79
2022/10/27 06:40:36;;;;;;;9.50;6.03;;;;;;;14.87;62.30;99576.16;6894419;28;20364;-78
2022/10/27 06:43:58;;;;;;;8.57;6.37;;;;;;;15.02;61.78;99585.72;6894915;28;20244;-78
2022/10/27 06:47:19;;;;;;;13.73;6.07;;;;;;;14.96;61.74;99570.28;6910720;28;20214;-77
2022/10/27 06:50:41;;;;;;;7.83;5.47;;;;;;;15.25;61.15;99574.34;6915668;28;20694;-77
2022/10/27 06:54:03;;;;;;;7.73;5.63;;;;;;;15.29;60.92;99586.44;6920960;28;20215;-77
2022/10/27 06:57:25;;;;;;;11.77;6.77;;;;;;;15.17;61.85;99589.00;6913234;28;20251;-77
2022/10/27 07:00:46;;;;;;;10.77;5.10;;;;;;;15.76;60.51;99589.53;6901293;28;20297;-78
2022/10/27 07:04:08;;;;;;;10.33;4.57;;;;;;;16.73;59.73;99601.53;6911678;28;20709;-79
2022/10/27 07:07:29;;;;;;;7.33;5.60;;;;;;;17.23;55.83;99578.50;6895567;28;20211;-80
2022/10/27 07:10:54;;;;;;;8.33;4.97;;;;;;;17.63;54.60;99593.31;6919240;28;20487;-79
2022/10/27 07:14:15;;;;;;;11.23;5.40;;;;;;;18.00;54.11;99597.63;6918177;28;20246;-79
2022/10/27 07:17:37;;;;;;;10.90;5.20;;;;;;;18.68;52.36;99598.78;6892964;28;20732;-79
2022/10/27 07:21:00;;;;;;;8.23;4.80;;;;;;;19.11;51.09;99596.47;6894272;28;20775;-79
2022/10/27 07:24:21;;;;;;;7.77;4.20;;;;;;;19.61;50.05;99563.91;6902163;28;20199;-78
2022/10/27 07:27:52;;;;;;;7.27;4.50;;;;;;;20.15;49.06;99596.97;6946667;28;20245;-79
2022/10/27 07:31:13;;;;;;;11.57;4.50;;;;;;;20.72;47.13;99590.25;6933178;28;20309;-79
2022/10/27 07:34:35;;;;;;;9.17;4.90;;;;;;;20.58;46.88;99608.09;6920945;28;20347;-79
2022/10/27 07:37:57;;;;;;;6.23;4.40;;;;;;;21.15;46.82;99609.53;6921531;28;20253;-79
2022/10/27 07:41:18;;;;;;;7.53;4.30;;;;;;;21.76;44.91;99607.31;6918113;28;20224;-79
2022/10/27 07:44:41;;;;;;;8.23;5.37;;;;;;;22.07;45.16;99573.59;6905538;28;20298;-78
2022/10/27 07:48:03;;;;;;;10.27;4.50;;;;;;;23.02;42.99;99576.28;6916857;28;20204;-79
2022/10/27 07:51:25;;;;;;;15.47;5.20;;;;;;;22.23;44.01;99572.66;6913074;28;20318;-79
2022/10/27 07:54:46;;;;;;;6.60;4.27;;;;;;;23.70;42.25;99579.63;6894586;28;20315;-80
2022/10/27 07:58:10;;;;;;;8.00;4.10;;;;;;;24.59;39.76;99588.34;6893418;28;20317;-79
2022/10/27 08:01:33;;;;;;;7.67;4.67;;;;;;;24.88;39.39;99603.19;6893794;28;20239;-79
2022/10/27 08:04:56;;;;;;;9.67;5.87;;;;;;;24.92;38.75;99593.25;6912308;28;20608;-79
2022/10/27 08:08:18;;;;;;;10.73;5.57;;;;;;;25.18;39.60;99598.44;6920336;28;20281;-79
2022/10/27 08:11:39;;;;;;;10.27;5.23;;;;;;;26.18;38.16;99606.31;6921063;28;20293;-79
2022/10/27 08:15:01;;;;;;;10.30;4.80;;;;;;;26.58;36.48;99580.28;6920919;28;20301;-78
2022/10/27 08:18:24;;;;;;;6.60;4.23;;;;;;;26.77;36.60;99604.19;6920914;28;20459;-78
2022/10/27 08:21:46;;;;;;;13.13;4.90;;;;;;;26.73;36.89;99603.13;6919423;28;20330;-77
2022/10/27 08:25:08;;;;;;;6.63;4.43;;;;;;;27.09;35.83;99606.38;6919564;28;20204;-78
2022/10/27 08:28:30;;;;;;;8.77;4.30;;;;;;;26.81;36.89;99615.50;6919189;28;20291;-78
2022/10/27 08:31:51;;;;;;;9.53;4.83;;;;;;;26.91;36.24;99618.19;6919347;28;20318;-78
2022/10/27 08:35:15;;;;;;;17.40;4.80;;;;;;;26.55;36.89;99608.56;6920032;28;20272;-78
2022/10/27 08:38:37;;;;;;;12.70;5.00;;;;;;;26.32;38.10;99618.34;6903305;28;20320;-79
2022/10/27 08:42:03;;;;;;;8.27;4.93;;;;;;;26.34;38.00;99616.16;6915869;28;20229;-79
2022/10/27 08:45:27;;;;;;;7.67;4.70;;;;;;;26.82;36.64;99606.06;6899210;28;20746;-79
2022/10/27 08:48:49;;;;;;;11.23;5.40;;;;;;;26.30;38.39;99583.84;6891854;28;20343;-79
2022/10/27 08:52:15;;;;;;;10.93;6.50;;;;;;;25.48;39.84;99609.41;6918371;28;20314;-79
2022/10/27 08:55:40;;;;;;;9.30;5.37;;;;;;;24.33;42.65;99589.41;6919369;28;20230;-79
2022/10/27 08:59:02;;;;;;;11.57;6.30;;;;;;;23.31;44.88;99605.06;6918348;28;20262;-79
2022/10/27 09:02:35;;;;;;;11.00;5.50;;;;;;;22.78;47.09;99614.34;6918475;28;20794;-79
2022/10/27 09:06:00;;;;;;;8.03;4.87;;;;;;;22.54;48.68;99609.50;6919110;28;20242;-79
2022/10/27 09:09:27;;;;;;;10.40;5.30;;;;;;;22.01;51.04;99618.56;6918454;28;20207;-78
2022/10/27 09:13:05;;;;;;;8.33;4.97;;;;;;;21.78;50.69;99609.81;6918932;28;20231;-78
2022/10/27 09:16:33;;;;;;;8.73;5.77;;;;;;;21.81;50.94;99606.53;6919510;28;20284;-79
2022/10/27 09:20:00;;;;;;;11.73;5.60;;;;;;;22.14;51.19;99609.09;6923734;28;20289;-79
2022/10/27 09:23:25;;;;;;;13.57;9.57;;;;;;;22.63;50.77;99603.25;6925004;28;20553;-78
2022/10/27 09:26:49;;;;;;;25.60;17.27;;;;;;;22.87;49.48;99607.28;6924237;28;20275;-78
2022/10/27 09:30:12;;;;;;;10.73;8.30;;;;;;;22.29;51.56;99604.56;6923669;28;20315;-78
2022/10/27 09:33:35;;;;;;;45.87;37.77;;;;;;;22.56;50.08;99585.31;6923927;28;20293;-78
2022/10/27 09:36:57;;;;;;;12.50;8.97;;;;;;;23.26;48.43;99602.28;6924109;28;20212;-78
2022/10/27 09:40:20;;;;;;;10.90;5.70;;;;;;;23.66;48.71;99606.03;6923409;28;20230;-79
2022/10/27 09:43:43;;;;;;;10.30;5.43;;;;;;;23.66;47.49;99603.28;6923933;28;20254;-78
2022/10/27 09:47:05;;;;;;;25.37;22.77;;;;;;;23.28;49.09;99597.34;6923875;28;20206;-79
2022/10/27 09:50:35;;;;;;;13.90;5.63;;;;;;;24.15;46.97;99581.66;6922672;28;20237;-78
2022/10/27 09:53:59;;;;;;;10.37;4.77;;;;;;;24.47;45.93;99591.34;6920527;28;20215;-79
2022/10/27 09:57:24;;;;;;;8.53;4.87;;;;;;;24.47;46.02;99572.03;6922612;28;20227;-79
2022/10/27 10:00:55;;;;;;;8.23;4.80;;;;;;;24.98;45.84;99598.50;6922102;28;20243;-78
2022/10/27 10:04:18;;;;;;;9.43;5.10;;;;;;;25.37;45.04;99591.22;6923620;28;20689;-77
2022/10/27 10:07:42;;;;;;;10.10;4.17;;;;;;;25.16;45.45;99562.00;6923036;28;20234;-79
2022/10/27 10:11:05;;;;;;;9.30;4.50;;;;;;;25.76;43.48;99564.53;6917427;28;20267;-80
2022/10/27 10:14:27;;;;;;;7.43;4.07;;;;;;;26.28;43.28;99575.81;6896594;28;20298;-77
2022/10/27 10:17:55;;;;;;;10.80;4.00;;;;;;;26.38;42.64;99566.63;6895867;28;20338;-78
2022/10/27 10:21:16;;;;;;;11.20;5.03;;;;;;;26.24;43.45;99571.97;6895691;28;20339;-77
2022/10/27 10:24:38;;;;;;;14.23;4.80;;;;;;;26.76;42.32;99568.50;6896991;28;20267;-78
2022/10/27 10:28:02;;;;;;;6.93;3.97;;;;;;;26.88;41.83;99563.41;6895307;28;20306;-80
2022/10/27 10:31:25;;;;;;;11.77;4.90;;;;;;;26.36;43.84;99557.78;6917459;28;20764;-79
2022/10/27 10:34:50;;;;;;;10.20;4.00;;;;;;;27.32;42.00;99564.88;6918307;28;20204;-79
2022/10/27 10:38:26;;;;;;;10.30;4.20;;;;;;;27.35;41.12;99541.28;6904471;28;20654;-80
2022/10/27 10:42:11;;;;;;;9.60;4.20;;;;;;;27.81;40.37;99542.38;6897183;28;20285;-80
2022/10/27 10:45:34;;;;;;;7.43;3.47;;;;;;;27.73;39.91;99502.25;6919035;28;20286;-79
2022/10/27 10:48:57;;;;;;;7.30;3.50;;;;;;;27.97;39.21;99533.53;6914613;28;20218;-80
2022/10/27 10:52:21;;;;;;;14.47;9.03;;;;;;;28.39;38.49;99536.22;6923465;28;20716;-78
2022/10/27 10:55:43;;;;;;;9.63;4.47;;;;;;;28.66;37.36;99539.03;6913076;28;20223;-77
2022/10/27 10:59:09;;;;;;;6.53;3.07;;;;;;;28.75;37.87;99531.69;6922663;28;20258;-78
2022/10/27 11:02:32;;;;;;;11.00;3.20;;;;;;;28.68;36.79;99522.09;6917673;28;20366;-80
2022/10/27 11:05:56;;;;;;;7.13;2.80;;;;;;;28.89;36.64;99538.06;6896457;28;20286;-79
2022/10/27 11:09:20;;;;;;;6.43;2.57;;;;;;;28.77;35.87;99532.19;6895166;28;20259;-80
2022/10/27 11:12:43;;;;;;;7.50;2.80;;;;;;;29.17;34.39;99528.66;6895942;28;20316;-79
2022/10/27 11:16:06;;;;;;;7.87;3.00;;;;;;;29.03;34.78;99518.69;6894096;28;20303;-79
2022/10/27 11:19:30;;;;;;;5.40;2.60;;;;;;;28.91;34.90;99523.88;6906310;28;20227;-80
2022/10/27 11:22:52;;;;;;;7.67;2.60;;;;;;;28.67;34.46;99429.66;6921748;28;20713;-78
2022/10/27 11:26:19;;;;;;;4.73;2.50;;;;;;;29.01;34.91;99520.94;6921771;28;20232;-77
2022/10/27 11:29:47;;;;;;;8.90;3.13;;;;;;;29.27;34.40;99505.41;6920473;28;20351;-78
2022/10/27 11:33:16;;;;;;;14.13;8.07;;;;;;;29.32;34.86;99500.53;6921612;28;20224;-79
2022/10/27 11:36:40;;;;;;;12.30;5.90;;;;;;;29.29;35.11;99500.34;6921817;28;20685;-79
2022/10/27 11:40:06;;;;;;;5.07;2.83;;;;;;;28.59;35.05;99487.84;6919666;28;20265;-79
2022/10/27 11:43:34;;;;;;;2.90;2.20;;;;;;;28.77;34.83;99485.00;6921568;28;20290;-79
2022/10/27 11:46:59;;;;;;;5.43;2.90;;;;;;;29.09;34.92;99490.50;6922565;28;20241;-80
2022/10/27 11:50:25;;;;;;;7.53;2.80;;;;;;;29.52;33.57;99490.94;6922676;28;20246;-82
2022/10/27 11:53:46;;;;;;;4.33;2.70;;;;;;;29.53;33.38;99476.78;6922052;28;20225;-80
2022/10/27 11:57:19;;;;;;;6.53;2.60;;;;;;;29.87;32.20;99474.31;6920823;28;20288;-79
2022/10/27 12:00:48;;;;;;;4.80;3.07;;;;;;;29.86;33.36;99474.63;6920909;28;20322;-79
2022/10/27 12:04:22;;;;;;;8.20;3.67;;;;;;;29.50;32.62;99457.94;6922497;28;20225;-81
2022/10/27 12:07:51;;;;;;;5.97;2.90;;;;;;;29.74;32.91;99464.06;6920827;28;20341;-79
2022/10/27 12:11:19;;;;;;;6.03;2.90;;;;;;;30.02;31.83;99464.78;6921095;28;20279;-78
2022/10/27 12:14:49;;;;;;;6.40;2.50;;;;;;;29.87;32.53;99473.47;6920664;28;20293;-80
2022/10/27 12:18:16;;;;;;;9.57;6.53;;;;;;;30.02;32.07;99462.00;6920839;28;20303;-80
2022/10/27 12:21:41;;;;;;;14.27;9.87;;;;;;;29.84;32.38;99468.56;6900410;28;20704;-79
2022/10/27 12:25:07;;;;;;;6.73;2.80;;;;;;;29.95;31.67;99456.88;6893679;28;20214;-79
2022/10/27 12:28:29;;;;;;;6.20;2.63;;;;;;;29.92;32.21;99442.78;6893165;28;20275;-79
2022/10/27 12:31:54;;;;;;;5.53;2.53;;;;;;;30.18;31.81;99446.56;6911858;28;20297;-81
2022/10/27 12:35:20;;;;;;;7.47;2.77;;;;;;;30.26;31.34;99449.41;6921688;28;20205;-79
2022/10/27 12:38:46;;;;;;;5.37;2.27;;;;;;;30.29;30.73;99434.06;6902186;28;20262;-80
2022/10/27 12:42:11;;;;;;;6.20;3.10;;;;;;;30.41;31.22;99431.50;6893333;28;20283;-80
2022/10/27 12:45:47;;;;;;;5.13;2.27;;;;;;;30.54;30.19;99420.28;6897325;28;20234;-79
2022/10/27 12:49:12;;;;;;;8.40;2.83;;;;;;;30.37;31.95;99388.78;6896793;28;20237;-80
2022/10/27 12:52:41;;;;;;;6.87;3.07;;;;;;;29.56;35.23;99428.09;6896853;28;20233;-79
2022/10/27 12:56:06;;;;;;;7.57;3.07;;;;;;;28.97;36.40;99425.50;6898580;28;20239;-79
2022/10/27 12:59:33;;;;;;;7.40;4.53;;;;;;;28.91;36.29;99421.94;6923434;28;20369;-79
2022/10/27 13:03:28;;;;;;;11.33;3.80;;;;;;;28.53;36.76;99417.75;6921836;28;20284;-80
2022/10/27 13:07:04;;;;;;;5.67;2.60;;;;;;;28.87;36.37;99423.72;6896976;28;20229;-80
2022/10/27 13:10:38;;;;;;;4.57;2.80;;;;;;;29.34;35.92;99409.38;6913167;28;20285;-79
2022/10/27 13:14:20;;;;;;;6.50;2.73;;;;;;;29.45;34.79;99415.53;6924460;28;20219;-79
2022/10/27 13:17:49;;;;;;;5.77;2.60;;;;;;;29.98;33.64;99411.75;6924122;28;20232;-80
2022/10/27 13:21:16;;;;;;;7.10;2.80;;;;;;;29.63;33.37;99403.44;6905717;28;20320;-80
2022/10/27 13:24:43;;;;;;;8.13;3.03;;;;;;;29.20;34.61;99413.31;6898601;28;20267;-80
2022/10/27 13:28:11;;;;;;;9.13;2.73;;;;;;;29.48;34.63;99410.16;6897449;28;20197;-80
2022/10/27 13:31:33;;;;;;;3.73;2.40;;;;;;;29.77;34.21;99395.91;6897823;28;20376;-80
2022/10/27 13:35:31;;;;;;;6.37;2.90;;;;;;;29.96;34.43;99388.97;6898364;28;20214;-80
2022/10/27 13:39:39;;;;;;;8.00;2.80;;;;;;;29.37;35.66;99402.38;6840719;29;20297;-80
2022/10/27 13:43:45;;;;;;;6.23;2.80;;;;;;;29.19;34.57;99395.81;6862985;28;20235;-80
2022/10/27 13:47:13;;;;;;;5.67;2.80;;;;;;;29.63;34.54;99357.03;6917851;28;20207;-80
2022/10/27 13:50:36;;;;;;;6.20;2.60;;;;;;;29.99;34.43;99385.56;6922824;28;20745;-80
2022/10/27 13:53:57;;;;;;;6.10;2.30;;;;;;;30.11;33.74;99385.84;6931482;28;20254;-80
2022/10/27 13:57:43;;;;;;;6.43;2.63;;;;;;;30.06;33.28;99354.50;6927476;28;20212;-80
2022/10/27 14:01:23;;;;;;;8.13;3.10;;;;;;;29.97;33.08;99384.25;6926006;28;20268;-80
2022/10/27 14:04:48;;;;;;;6.27;2.90;;;;;;;30.22;33.73;99370.53;6927449;28;20286;-81
2022/10/27 14:08:20;;;;;;;5.77;2.40;;;;;;;29.98;35.07;99381.16;6926236;28;20588;-80
2022/10/27 14:11:45;;;;;;;7.57;2.30;;;;;;;30.00;34.53;99386.38;6915131;28;20311;-80
2022/10/27 14:15:16;;;;;;;4.10;2.10;;;;;;;29.84;34.15;99374.81;6924188;28;20244;-81
2022/10/27 14:18:38;;;;;;;6.67;2.70;;;;;;;30.05;32.75;99380.69;6943020;28;20248;-82
2022/10/27 14:22:03;;;;;;;5.83;2.40;;;;;;;29.97;32.96;99379.53;6933108;28;20403;-80
2022/10/27 14:25:27;;;;;;;6.23;2.60;;;;;;;29.79;33.36;99371.38;6922118;28;20214;-81
2022/10/27 14:28:48;;;;;;;6.87;2.27;;;;;;;29.64;34.76;99389.25;6932972;28;20319;-80
2022/10/27 14:32:14;;;;;;;6.77;2.20;;;;;;;29.62;35.05;99380.41;6923527;28;20667;-81
2022/10/27 14:35:36;;;;;;;5.40;2.70;;;;;;;29.59;35.53;99375.47;6924343;28;20239;-80
2022/10/27 14:39:05;;;;;;;5.83;2.23;;;;;;;29.45;35.68;99402.47;6922798;28;20309;-80
2022/10/27 14:42:29;;;;;;;4.60;2.50;;;;;;;29.14;36.74;99382.03;6907112;28;20240;-81
2022/10/27 14:45:56;;;;;;;5.80;2.53;;;;;;;29.05;37.80;99396.97;6897550;28;20225;-81
2022/10/27 14:49:25;;;;;;;8.50;2.77;;;;;;;28.75;38.31;99383.72;6896384;28;20287;-81
2022/10/27 14:52:50;;;;;;;5.03;2.60;;;;;;;28.49;38.92;99377.84;6894808;28;20319;-82
2022/10/27 14:56:30;;;;;;;6.37;2.73;;;;;;;28.16;39.60;99381.81;6897373;28;20355;-81
2022/10/27 14:59:52;;;;;;;7.73;2.77;;;;;;;28.02;40.20;99386.47;6900687;28;20701;-81
2022/10/27 15:03:13;;;;;;;8.60;3.20;;;;;;;27.43;42.37;99386.31;6898258;28;20358;-81
2022/10/27 15:06:35;;;;;;;4.03;2.50;;;;;;;27.25;41.85;99392.69;6900390;28;20213;-81
2022/10/27 15:09:56;;;;;;;9.63;3.03;;;;;;;27.16;41.82;99385.34;6907139;28;20278;-80
2022/10/27 15:13:21;;;;;;;7.83;2.87;;;;;;;26.50;43.32;99392.81;6915290;28;20373;-82
2022/10/27 15:16:44;;;;;;;6.37;2.83;;;;;;;26.29;43.81;99374.78;6929149;28;20212;-80
2022/10/27 15:20:07;;;;;;;7.37;2.70;;;;;;;26.37;43.63;99369.44;6938206;28;20225;-80
2022/10/27 15:23:30;;;;;;;3.97;2.40;;;;;;;26.38;43.98;99397.91;6954666;28;20261;-80
2022/10/27 15:26:53;;;;;;;6.23;2.70;;;;;;;25.86;45.08;99361.91;6931302;28;20213;-80
2022/10/27 15:30:18;;;;;;;8.70;2.93;;;;;;;25.71;45.67;99376.69;6919199;28;20238;-81
2022/10/27 15:33:42;;;;;;;8.80;3.27;;;;;;;24.93;47.94;99376.94;6922397;28;20292;-80
2022/10/27 15:37:14;;;;;;;8.30;3.13;;;;;;;24.79;48.92;99395.22;6921831;28;20224;-78
2022/10/27 15:40:39;;;;;;;7.67;3.30;;;;;;;24.51;49.19;99382.88;6925563;28;20489;-80
2022/10/27 15:44:15;;;;;;;8.67;3.23;;;;;;;24.58;49.66;99382.59;6949892;28;20214;-80
2022/10/27 15:47:42;;;;;;;14.17;3.53;;;;;;;24.52;50.01;99403.00;6948389;28;20360;-80
2022/10/27 15:51:06;;;;;;;10.10;4.07;;;;;;;24.64;49.78;99396.09;6936986;28;20275;-81
2022/10/27 15:54:32;;;;;;;11.83;3.47;;;;;;;23.92;51.73;99395.69;6921362;28;20304;-79
2022/10/27 15:57:54;;;;;;;9.90;2.93;;;;;;;23.84;51.61;99354.88;6921730;28;20608;-80
2022/10/27 16:01:31;;;;;;;9.87;3.10;;;;;;;24.41;50.80;99412.41;6930312;28;20236;-80